sensor_id;sensor_type;location;lat;lon;timestamp;pressure;altitude;pressure_sealevel;temperature;humidity
80511;BME280;69840;53.040;8.600;2023-07-24T00:01:31;100439.75;;;17.30;98.57
80511;BME280;69840;53.040;8.600;2023-07-24T00:05:43;100439.34;;;17.26;98.45
80511;BME280;69840;53.040;8.600;2023-07-24T00:09:56;100435.59;;;17.34;98.73
80511;BME280;69840;53.040;8.600;2023-07-24T00:14:08;100442.09;;;17.44;97.85
80511;BME280;69840;53.040;8.600;2023-07-24T00:18:21;100429.34;;;17.46;97.37
80511;BME280;69840;53.040;8.600;2023-07-24T00:22:33;100426.69;;;17.46;97.40
80511;BME280;69840;53.040;8.600;2023-07-24T00:26:47;100429.72;;;17.50;97.45
80511;BME280;69840;53.040;8.600;2023-07-24T00:30:59;100425.59;;;17.54;97.09
80511;BME280;69840;53.040;8.600;2023-07-24T00:35:12;100420.44;;;17.52;97.24
80511;BME280;69840;53.040;8.600;2023-07-24T00:39:24;100423.91;;;17.60;96.59
80511;BME280;69840;53.040;8.600;2023-07-24T00:43:37;100423.09;;;17.59;96.62
80511;BME280;69840;53.040;8.600;2023-07-24T00:47:50;100424.72;;;17.60;95.75
80511;BME280;69840;53.040;8.600;2023-07-24T00:52:03;100419.94;;;17.69;96.20
80511;BME280;69840;53.040;8.600;2023-07-24T00:56:16;100416.22;;;17.70;95.72
80511;BME280;69840;53.040;8.600;2023-07-24T01:00:29;100408.16;;;17.76;94.39
80511;BME280;69840;53.040;8.600;2023-07-24T01:04:41;100416.78;;;17.78;94.04
80511;BME280;69840;53.040;8.600;2023-07-24T01:08:54;100413.56;;;17.70;94.42
80511;BME280;69840;53.040;8.600;2023-07-24T01:13:19;100416.06;;;17.65;94.01
80511;BME280;69840;53.040;8.600;2023-07-24T01:17:38;100412.34;;;17.66;93.39
80511;BME280;69840;53.040;8.600;2023-07-24T01:22:12;100423.25;;;17.64;93.14
80511;BME280;69840;53.040;8.600;2023-07-24T01:26:26;100426.56;;;17.60;94.04
80511;BME280;69840;53.040;8.600;2023-07-24T01:30:39;100425.59;;;17.54;94.66
80511;BME280;69840;53.040;8.600;2023-07-24T01:34:52;100423.94;;;17.53;93.62
80511;BME280;69840;53.040;8.600;2023-07-24T01:39:05;100416.75;;;17.53;93.73
80511;BME280;69840;53.040;8.600;2023-07-24T01:43:18;100415.09;;;17.52;93.54
80511;BME280;69840;53.040;8.600;2023-07-24T01:47:30;100407.31;;;17.51;93.35
80511;BME280;69840;53.040;8.600;2023-07-24T01:51:43;100400.22;;;17.38;93.89
80511;BME280;69840;53.040;8.600;2023-07-24T01:55:55;100411.63;;;17.27;94.10
80511;BME280;69840;53.040;8.600;2023-07-24T02:00:08;100413.25;;;17.28;94.00
80511;BME280;69840;53.040;8.600;2023-07-24T02:04:21;100409.97;;;17.26;94.45
80511;BME280;69840;53.040;8.600;2023-07-24T02:08:33;100397.03;;;17.23;93.58
80511;BME280;69840;53.040;8.600;2023-07-24T02:12:46;100394.56;;;17.28;93.45
80511;BME280;69840;53.040;8.600;2023-07-24T02:16:58;100396.19;;;17.29;94.32
80511;BME280;69840;53.040;8.600;2023-07-24T02:21:11;100394.97;;;17.25;93.94
80511;BME280;69840;53.040;8.600;2023-07-24T02:25:23;100392.69;;;17.29;93.60
80511;BME280;69840;53.040;8.600;2023-07-24T02:29:36;100375.03;;;17.28;92.57
80511;BME280;69840;53.040;8.600;2023-07-24T02:33:49;100375.06;;;17.21;92.88
80511;BME280;69840;53.040;8.600;2023-07-24T02:38:01;100375.78;;;17.10;93.97
80511;BME280;69840;53.040;8.600;2023-07-24T02:42:14;100381.00;;;16.98;94.25
80511;BME280;69840;53.040;8.600;2023-07-24T02:46:27;100367.06;;;16.90;94.49
80511;BME280;69840;53.040;8.600;2023-07-24T02:50:39;100375.59;;;16.73;94.77
80511;BME280;69840;53.040;8.600;2023-07-24T02:54:52;100370.72;;;16.64;95.02
80511;BME280;69840;53.040;8.600;2023-07-24T02:59:05;100377.53;;;16.46;95.98
80511;BME280;69840;53.040;8.600;2023-07-24T03:03:17;100381.47;;;16.37;96.12
80511;BME280;69840;53.040;8.600;2023-07-24T03:07:29;100391.78;;;16.27;96.09
80511;BME280;69840;53.040;8.600;2023-07-24T03:11:42;100380.28;;;16.27;96.90
80511;BME280;69840;53.040;8.600;2023-07-24T03:15:58;100390.94;;;16.27;97.07
80511;BME280;69840;53.040;8.600;2023-07-24T03:20:14;100386.66;;;16.26;96.74
80511;BME280;69840;53.040;8.600;2023-07-24T03:24:27;100375.81;;;16.21;96.91
80511;BME280;69840;53.040;8.600;2023-07-24T03:28:40;100375.81;;;16.14;97.57
80511;BME280;69840;53.040;8.600;2023-07-24T03:32:52;100372.94;;;16.09;97.86
80511;BME280;69840;53.040;8.600;2023-07-24T03:37:05;100363.31;;;16.08;97.92
80511;BME280;69840;53.040;8.600;2023-07-24T03:41:17;100369.47;;;16.15;98.43
80511;BME280;69840;53.040;8.600;2023-07-24T03:45:31;100369.81;;;16.25;98.06
80511;BME280;69840;53.040;8.600;2023-07-24T03:49:43;100379.25;;;16.34;98.57
80511;BME280;69840;53.040;8.600;2023-07-24T03:53:56;100374.06;;;16.46;98.14
80511;BME280;69840;53.040;8.600;2023-07-24T03:58:08;100366.81;;;16.53;98.19
80511;BME280;69840;53.040;8.600;2023-07-24T04:02:21;100372.16;;;16.60;98.04
80511;BME280;69840;53.040;8.600;2023-07-24T04:06:34;100374.38;;;16.69;97.40
80511;BME280;69840;53.040;8.600;2023-07-24T04:10:46;100371.88;;;16.74;97.47
80511;BME280;69840;53.040;8.600;2023-07-24T04:14:59;100373.88;;;16.86;98.03
80511;BME280;69840;53.040;8.600;2023-07-24T04:19:11;100365.19;;;16.97;97.17
80511;BME280;69840;53.040;8.600;2023-07-24T04:23:29;100364.50;;;17.08;97.36
80511;BME280;69840;53.040;8.600;2023-07-24T04:27:42;100360.06;;;17.20;97.08
80511;BME280;69840;53.040;8.600;2023-07-24T04:31:54;100355.09;;;17.30;97.10
80511;BME280;69840;53.040;8.600;2023-07-24T04:36:07;100338.25;;;17.30;96.00
80511;BME280;69840;53.040;8.600;2023-07-24T04:40:19;100338.94;;;17.43;95.87
80511;BME280;69840;53.040;8.600;2023-07-24T04:44:32;100330.56;;;17.58;96.07
80511;BME280;69840;53.040;8.600;2023-07-24T04:48:44;100321.47;;;17.66;95.23
80511;BME280;69840;53.040;8.600;2023-07-24T04:52:56;100313.84;;;17.69;95.48
80511;BME280;69840;53.040;8.600;2023-07-24T04:57:09;100311.38;;;17.68;95.03
80511;BME280;69840;53.040;8.600;2023-07-24T05:01:21;100306.19;;;17.73;95.45
80511;BME280;69840;53.040;8.600;2023-07-24T05:05:34;100305.38;;;17.72;95.50
80511;BME280;69840;53.040;8.600;2023-07-24T05:09:46;100300.47;;;17.69;95.48
80511;BME280;69840;53.040;8.600;2023-07-24T05:13:59;100298.16;;;17.73;95.15
80511;BME280;69840;53.040;8.600;2023-07-24T05:18:12;100305.88;;;17.81;95.09
80511;BME280;69840;53.040;8.600;2023-07-24T05:22:24;100305.59;;;17.89;94.67
80511;BME280;69840;53.040;8.600;2023-07-24T05:26:37;100307.97;;;17.97;94.21
80511;BME280;69840;53.040;8.600;2023-07-24T05:30:49;100314.88;;;18.05;94.34
80511;BME280;69840;53.040;8.600;2023-07-24T05:35:02;100304.41;;;18.03;93.98
80511;BME280;69840;53.040;8.600;2023-07-24T05:39:14;100299.00;;;18.10;93.75
80511;BME280;69840;53.040;8.600;2023-07-24T05:43:27;100295.50;;;18.09;93.66
80511;BME280;69840;53.040;8.600;2023-07-24T05:47:40;100281.88;;;18.11;93.20
80511;BME280;69840;53.040;8.600;2023-07-24T05:51:52;100278.25;;;18.05;92.81
80511;BME280;69840;53.040;8.600;2023-07-24T05:56:05;100278.84;;;18.07;92.20
80511;BME280;69840;53.040;8.600;2023-07-24T06:00:18;100283.16;;;18.08;91.46
80511;BME280;69840;53.040;8.600;2023-07-24T06:04:30;100283.97;;;18.09;90.91
80511;BME280;69840;53.040;8.600;2023-07-24T06:08:43;100273.19;;;18.15;90.68
80511;BME280;69840;53.040;8.600;2023-07-24T06:12:55;100267.34;;;18.07;90.72
80511;BME280;69840;53.040;8.600;2023-07-24T06:17:08;100265.38;;;18.14;90.80
80511;BME280;69840;53.040;8.600;2023-07-24T06:21:20;100276.00;;;18.20;90.46
80511;BME280;69840;53.040;8.600;2023-07-24T06:25:33;100278.34;;;18.29;90.65
80511;BME280;69840;53.040;8.600;2023-07-24T06:29:45;100288.59;;;18.32;91.06
80511;BME280;69840;53.040;8.600;2023-07-24T06:33:59;100288.16;;;18.35;90.59
80511;BME280;69840;53.040;8.600;2023-07-24T06:38:11;100285.03;;;18.38;90.03
80511;BME280;69840;53.040;8.600;2023-07-24T06:42:24;100277.91;;;18.32;89.54
80511;BME280;69840;53.040;8.600;2023-07-24T06:46:36;100285.47;;;18.35;89.41
80511;BME280;69840;53.040;8.600;2023-07-24T06:50:49;100286.97;;;18.31;89.29
80511;BME280;69840;53.040;8.600;2023-07-24T06:55:01;100278.00;;;18.25;89.96
80511;BME280;69840;53.040;8.600;2023-07-24T06:59:14;100290.50;;;18.13;89.05
80511;BME280;69840;53.040;8.600;2023-07-24T07:03:26;100281.78;;;18.17;89.93
80511;BME280;69840;53.040;8.600;2023-07-24T07:07:39;100275.25;;;18.13;90.52
80511;BME280;69840;53.040;8.600;2023-07-24T07:11:51;100276.44;;;18.17;91.08
80511;BME280;69840;53.040;8.600;2023-07-24T07:16:04;100282.66;;;18.30;89.65
80511;BME280;69840;53.040;8.600;2023-07-24T07:20:16;100289.69;;;18.42;89.40
80511;BME280;69840;53.040;8.600;2023-07-24T07:24:29;100292.06;;;18.20;88.50
80511;BME280;69840;53.040;8.600;2023-07-24T07:28:41;100297.50;;;18.44;87.44
80511;BME280;69840;53.040;8.600;2023-07-24T07:32:54;100293.31;;;18.48;86.47
80511;BME280;69840;53.040;8.600;2023-07-24T07:37:06;100300.75;;;18.64;85.87
80511;BME280;69840;53.040;8.600;2023-07-24T07:41:19;100297.69;;;18.61;86.30
80511;BME280;69840;53.040;8.600;2023-07-24T07:45:32;100298.69;;;18.89;86.20
80511;BME280;69840;53.040;8.600;2023-07-24T07:49:44;100297.69;;;19.14;85.97
80511;BME280;69840;53.040;8.600;2023-07-24T07:53:57;100293.75;;;19.40;86.20
80511;BME280;69840;53.040;8.600;2023-07-24T07:58:09;100285.38;;;19.59;84.26
80511;BME280;69840;53.040;8.600;2023-07-24T08:02:22;100294.56;;;19.52;83.02
80511;BME280;69840;53.040;8.600;2023-07-24T08:06:34;100298.56;;;19.49;83.08
80511;BME280;69840;53.040;8.600;2023-07-24T08:10:46;100283.75;;;19.58;82.99
80511;BME280;69840;53.040;8.600;2023-07-24T08:14:59;100289.56;;;19.67;82.00
80511;BME280;69840;53.040;8.600;2023-07-24T08:19:11;100287.59;;;19.63;80.37
80511;BME280;69840;53.040;8.600;2023-07-24T08:23:24;100284.78;;;19.46;83.04
80511;BME280;69840;53.040;8.600;2023-07-24T08:27:36;100285.75;;;19.51;83.67
80511;BME280;69840;53.040;8.600;2023-07-24T08:31:56;100287.47;;;19.57;83.75
80511;BME280;69840;53.040;8.600;2023-07-24T08:36:09;100276.03;;;19.74;84.16
80511;BME280;69840;53.040;8.600;2023-07-24T08:40:21;100278.44;;;19.99;83.23
80511;BME280;69840;53.040;8.600;2023-07-24T08:44:34;100290.59;;;20.18;80.96
80511;BME280;69840;53.040;8.600;2023-07-24T08:48:47;100284.59;;;20.39;80.92
80511;BME280;69840;53.040;8.600;2023-07-24T08:53:00;100272.03;;;19.88;81.21
80511;BME280;69840;53.040;8.600;2023-07-24T08:57:14;100267.03;;;19.80;81.48
80511;BME280;69840;53.040;8.600;2023-07-24T09:01:27;100271.84;;;20.35;79.58
80511;BME280;69840;53.040;8.600;2023-07-24T09:05:39;100262.84;;;20.69;78.21
80511;BME280;69840;53.040;8.600;2023-07-24T09:09:52;100264.47;;;20.70;76.34
80511;BME280;69840;53.040;8.600;2023-07-24T09:14:04;100269.16;;;20.46;77.41
80511;BME280;69840;53.040;8.600;2023-07-24T09:18:25;100266.56;;;20.51;77.33
80511;BME280;69840;53.040;8.600;2023-07-24T09:22:48;100265.41;;;20.92;76.96
80511;BME280;69840;53.040;8.600;2023-07-24T09:27:11;100264.53;;;21.42;75.35
80511;BME280;69840;53.040;8.600;2023-07-24T09:31:35;100261.66;;;21.65;74.14
80511;BME280;69840;53.040;8.600;2023-07-24T09:35:58;100243.59;;;21.44;74.22
80511;BME280;69840;53.040;8.600;2023-07-24T09:40:12;100237.03;;;21.57;74.08
80511;BME280;69840;53.040;8.600;2023-07-24T09:44:26;100222.78;;;21.34;71.92
80511;BME280;69840;53.040;8.600;2023-07-24T09:48:38;100225.41;;;21.95;68.91
80511;BME280;69840;53.040;8.600;2023-07-24T09:52:53;100219.06;;;22.28;69.21
80511;BME280;69840;53.040;8.600;2023-07-24T09:57:08;100229.09;;;22.37;67.54
80511;BME280;69840;53.040;8.600;2023-07-24T10:01:27;100223.78;;;22.43;65.82
80511;BME280;69840;53.040;8.600;2023-07-24T10:05:41;100219.22;;;22.16;68.93
80511;BME280;69840;53.040;8.600;2023-07-24T10:09:56;100215.53;;;22.27;67.13
80511;BME280;69840;53.040;8.600;2023-07-24T10:14:09;100215.88;;;22.63;65.78
80511;BME280;69840;53.040;8.600;2023-07-24T10:18:28;100219.34;;;22.90;66.70
80511;BME280;69840;53.040;8.600;2023-07-24T10:22:42;100199.38;;;22.27;63.08
80511;BME280;69840;53.040;8.600;2023-07-24T10:26:55;100211.69;;;23.56;61.21
80511;BME280;69840;53.040;8.600;2023-07-24T10:31:22;100203.75;;;25.29;52.90
80511;BME280;69840;53.040;8.600;2023-07-24T10:35:42;100213.56;;;24.38;54.30
80511;BME280;69840;53.040;8.600;2023-07-24T10:39:55;100198.66;;;24.26;56.12
80511;BME280;69840;53.040;8.600;2023-07-24T10:44:08;100190.78;;;24.09;57.10
80511;BME280;69840;53.040;8.600;2023-07-24T10:48:21;100197.25;;;24.03;55.98
80511;BME280;69840;53.040;8.600;2023-07-24T10:52:34;100182.19;;;24.83;54.89
80511;BME280;69840;53.040;8.600;2023-07-24T10:56:46;100184.88;;;24.93;53.81
80511;BME280;69840;53.040;8.600;2023-07-24T11:01:04;100179.63;;;23.80;56.02
80511;BME280;69840;53.040;8.600;2023-07-24T11:05:17;100169.53;;;24.38;55.32
80511;BME280;69840;53.040;8.600;2023-07-24T11:09:36;100167.31;;;24.20;54.32
80511;BME280;69840;53.040;8.600;2023-07-24T11:13:49;100159.47;;;24.74;52.29
80511;BME280;69840;53.040;8.600;2023-07-24T11:18:02;100158.25;;;25.46;50.33
80511;BME280;69840;53.040;8.600;2023-07-24T11:22:14;100150.41;;;25.39;50.75
80511;BME280;69840;53.040;8.600;2023-07-24T11:26:28;100154.03;;;25.09;51.09
80511;BME280;69840;53.040;8.600;2023-07-24T11:30:41;100152.50;;;25.63;49.77
80511;BME280;69840;53.040;8.600;2023-07-24T11:34:54;100162.72;;;24.81;53.32
80511;BME280;69840;53.040;8.600;2023-07-24T11:39:06;100163.03;;;24.54;52.87
80511;BME280;69840;53.040;8.600;2023-07-24T11:43:21;100150.69;;;25.38;52.19
80511;BME280;69840;53.040;8.600;2023-07-24T11:47:47;100150.16;;;25.95;49.33
80511;BME280;69840;53.040;8.600;2023-07-24T11:52:04;100144.03;;;25.79;49.34
80511;BME280;69840;53.040;8.600;2023-07-24T11:56:19;100159.66;;;26.66;50.81
80511;BME280;69840;53.040;8.600;2023-07-24T12:00:33;100145.13;;;27.94;44.24
80511;BME280;69840;53.040;8.600;2023-07-24T12:04:46;100144.75;;;29.67;42.33
80511;BME280;69840;53.040;8.600;2023-07-24T12:09:03;100131.97;;;28.99;40.36
80511;BME280;69840;53.040;8.600;2023-07-24T12:13:16;100144.19;;;26.95;45.46
80511;BME280;69840;53.040;8.600;2023-07-24T12:17:30;100136.50;;;27.50;44.34
80511;BME280;69840;53.040;8.600;2023-07-24T12:21:42;100134.22;;;25.89;45.29
80511;BME280;69840;53.040;8.600;2023-07-24T12:25:55;100137.31;;;26.11;45.40
80511;BME280;69840;53.040;8.600;2023-07-24T12:30:08;100128.97;;;27.42;43.07
80511;BME280;69840;53.040;8.600;2023-07-24T12:34:21;100122.34;;;27.53;45.75
80511;BME280;69840;53.040;8.600;2023-07-24T12:38:33;100114.84;;;29.26;38.66
80511;BME280;69840;53.040;8.600;2023-07-24T12:42:46;100107.03;;;30.72;35.13
80511;BME280;69840;53.040;8.600;2023-07-24T12:46:58;100117.81;;;30.02;36.34
80511;BME280;69840;53.040;8.600;2023-07-24T12:51:11;100102.88;;;28.67;37.72
80511;BME280;69840;53.040;8.600;2023-07-24T12:55:23;100091.06;;;28.12;39.43
80511;BME280;69840;53.040;8.600;2023-07-24T12:59:36;100111.59;;;28.96;36.83
80511;BME280;69840;53.040;8.600;2023-07-24T13:03:48;100102.22;;;29.03;37.51
80511;BME280;69840;53.040;8.600;2023-07-24T13:08:01;100113.75;;;28.02;42.63
80511;BME280;69840;53.040;8.600;2023-07-24T13:12:13;100104.13;;;28.75;41.98
80511;BME280;69840;53.040;8.600;2023-07-24T13:16:26;100116.22;;;28.36;44.96
80511;BME280;69840;53.040;8.600;2023-07-24T13:20:40;100107.91;;;27.76;43.38
80511;BME280;69840;53.040;8.600;2023-07-24T13:24:52;100113.88;;;27.36;46.80
80511;BME280;69840;53.040;8.600;2023-07-24T13:29:05;100112.41;;;27.01;46.35
80511;BME280;69840;53.040;8.600;2023-07-24T13:33:17;100110.06;;;26.31;49.21
80511;BME280;69840;53.040;8.600;2023-07-24T13:37:30;100104.34;;;25.99;48.55
80511;BME280;69840;53.040;8.600;2023-07-24T13:41:42;100092.69;;;25.54;50.61
80511;BME280;69840;53.040;8.600;2023-07-24T13:45:55;100083.47;;;25.60;48.86
80511;BME280;69840;53.040;8.600;2023-07-24T13:50:08;100070.19;;;25.14;48.35
80511;BME280;69840;53.040;8.600;2023-07-24T13:54:20;100066.34;;;25.26;50.97
80511;BME280;69840;53.040;8.600;2023-07-24T13:58:33;100082.56;;;26.48;51.34
80511;BME280;69840;53.040;8.600;2023-07-24T14:02:45;100075.25;;;26.72;51.59
80511;BME280;69840;53.040;8.600;2023-07-24T14:06:58;100068.03;;;27.53;46.16
80511;BME280;69840;53.040;8.600;2023-07-24T14:11:10;100052.88;;;28.36;43.95
80511;BME280;69840;53.040;8.600;2023-07-24T14:15:24;100056.81;;;28.30;44.91
80511;BME280;69840;53.040;8.600;2023-07-24T14:19:36;100063.38;;;26.68;47.90
80511;BME280;69840;53.040;8.600;2023-07-24T14:23:49;100044.56;;;27.81;44.55
80511;BME280;69840;53.040;8.600;2023-07-24T14:28:02;100047.19;;;29.06;43.15
80511;BME280;69840;53.040;8.600;2023-07-24T14:32:14;100043.84;;;29.72;42.40
80511;BME280;69840;53.040;8.600;2023-07-24T14:36:27;100049.19;;;28.45;42.00
80511;BME280;69840;53.040;8.600;2023-07-24T14:40:40;100047.50;;;29.04;42.90
80511;BME280;69840;53.040;8.600;2023-07-24T14:44:52;100035.22;;;29.79;44.11
80511;BME280;69840;53.040;8.600;2023-07-24T14:49:05;100014.91;;;29.13;45.00
80511;BME280;69840;53.040;8.600;2023-07-24T14:53:17;100015.94;;;28.35;43.06
80511;BME280;69840;53.040;8.600;2023-07-24T14:57:30;100010.69;;;28.38;45.73
80511;BME280;69840;53.040;8.600;2023-07-24T15:01:42;100010.31;;;27.66;45.38
80511;BME280;69840;53.040;8.600;2023-07-24T15:05:55;100004.66;;;27.63;44.06
80511;BME280;69840;53.040;8.600;2023-07-24T15:10:07;99993.06;;;27.57;43.11
80511;BME280;69840;53.040;8.600;2023-07-24T15:14:20;99999.66;;;27.32;44.48
80511;BME280;69840;53.040;8.600;2023-07-24T15:18:33;100004.91;;;26.33;46.21
80511;BME280;69840;53.040;8.600;2023-07-24T15:22:45;99994.72;;;26.49;47.46
80511;BME280;69840;53.040;8.600;2023-07-24T15:26:58;99990.91;;;27.16;44.53
80511;BME280;69840;53.040;8.600;2023-07-24T15:31:10;100006.22;;;26.07;46.76
80511;BME280;69840;53.040;8.600;2023-07-24T15:35:23;100019.50;;;26.08;46.19
80511;BME280;69840;53.040;8.600;2023-07-24T15:39:36;100036.03;;;25.24;48.16
80511;BME280;69840;53.040;8.600;2023-07-24T15:43:48;100064.41;;;23.96;52.52
80511;BME280;69840;53.040;8.600;2023-07-24T15:48:01;100083.47;;;22.44;57.28
80511;BME280;69840;53.040;8.600;2023-07-24T15:52:13;100092.19;;;21.65;59.91
80511;BME280;69840;53.040;8.600;2023-07-24T15:56:26;100104.84;;;20.83;61.84
80511;BME280;69840;53.040;8.600;2023-07-24T16:00:38;100103.81;;;20.33;64.40
80511;BME280;69840;53.040;8.600;2023-07-24T16:04:51;100126.38;;;19.87;65.29
80511;BME280;69840;53.040;8.600;2023-07-24T16:09:03;100117.03;;;19.61;63.34
80511;BME280;69840;53.040;8.600;2023-07-24T16:13:16;100132.97;;;19.28;65.02
80511;BME280;69840;53.040;8.600;2023-07-24T16:17:28;100148.16;;;18.87;66.11
80511;BME280;69840;53.040;8.600;2023-07-24T16:21:46;100153.56;;;18.34;68.82
80511;BME280;69840;53.040;8.600;2023-07-24T16:25:59;100135.72;;;17.57;73.87
80511;BME280;69840;53.040;8.600;2023-07-24T16:30:12;100147.22;;;17.75;74.84
80511;BME280;69840;53.040;8.600;2023-07-24T16:34:25;100143.28;;;17.41;79.95
80511;BME280;69840;53.040;8.600;2023-07-24T16:38:37;100135.72;;;17.20;80.96
80511;BME280;69840;53.040;8.600;2023-07-24T16:42:49;100134.41;;;17.11;82.93
80511;BME280;69840;53.040;8.600;2023-07-24T16:47:02;100128.47;;;17.09;82.96
80511;BME280;69840;53.040;8.600;2023-07-24T16:51:18;100132.69;;;16.98;84.62
80511;BME280;69840;53.040;8.600;2023-07-24T16:55:30;100137.78;;;16.81;85.15
80511;BME280;69840;53.040;8.600;2023-07-24T16:59:43;100145.88;;;16.93;85.77
80511;BME280;69840;53.040;8.600;2023-07-24T17:03:55;100123.72;;;16.93;85.21
80511;BME280;69840;53.040;8.600;2023-07-24T17:08:09;100130.84;;;16.99;86.43
80511;BME280;69840;53.040;8.600;2023-07-24T17:12:22;100125.56;;;17.10;86.37
80511;BME280;69840;53.040;8.600;2023-07-24T17:16:34;100137.34;;;17.39;85.89
80511;BME280;69840;53.040;8.600;2023-07-24T17:20:50;100136.97;;;17.72;86.03
80511;BME280;69840;53.040;8.600;2023-07-24T17:25:03;100146.41;;;18.16;85.68
80511;BME280;69840;53.040;8.600;2023-07-24T17:29:15;100148.88;;;18.30;82.47
80511;BME280;69840;53.040;8.600;2023-07-24T17:33:28;100144.72;;;18.34;82.50
80511;BME280;69840;53.040;8.600;2023-07-24T17:37:41;100134.72;;;18.41;83.16
80511;BME280;69840;53.040;8.600;2023-07-24T17:41:54;100130.75;;;18.32;83.93
80511;BME280;69840;53.040;8.600;2023-07-24T17:46:06;100142.06;;;18.57;83.02
80511;BME280;69840;53.040;8.600;2023-07-24T17:50:19;100151.03;;;18.51;83.22
80511;BME280;69840;53.040;8.600;2023-07-24T17:54:32;100165.09;;;18.46;83.98
80511;BME280;69840;53.040;8.600;2023-07-24T17:58:44;100163.81;;;18.37;84.80
80511;BME280;69840;53.040;8.600;2023-07-24T18:02:57;100165.66;;;18.37;84.27
80511;BME280;69840;53.040;8.600;2023-07-24T18:07:09;100170.56;;;18.51;84.27
80511;BME280;69840;53.040;8.600;2023-07-24T18:11:22;100180.56;;;18.44;84.04
80511;BME280;69840;53.040;8.600;2023-07-24T18:15:34;100183.94;;;18.40;84.71
80511;BME280;69840;53.040;8.600;2023-07-24T18:19:47;100190.19;;;18.34;84.40
80511;BME280;69840;53.040;8.600;2023-07-24T18:23:59;100189.34;;;18.21;84.85
80511;BME280;69840;53.040;8.600;2023-07-24T18:28:12;100206.44;;;17.91;86.01
80511;BME280;69840;53.040;8.600;2023-07-24T18:32:24;100201.19;;;17.84;86.76
80511;BME280;69840;53.040;8.600;2023-07-24T18:36:37;100211.81;;;17.72;86.77
80511;BME280;69840;53.040;8.600;2023-07-24T18:40:49;100209.44;;;17.46;87.02
80511;BME280;69840;53.040;8.600;2023-07-24T18:45:02;100208.59;;;17.27;86.84
80511;BME280;69840;53.040;8.600;2023-07-24T18:49:14;100226.41;;;16.90;88.07
80511;BME280;69840;53.040;8.600;2023-07-24T18:53:27;100243.88;;;16.55;88.76
80511;BME280;69840;53.040;8.600;2023-07-24T18:57:40;100244.38;;;16.45;88.00
80511;BME280;69840;53.040;8.600;2023-07-24T19:01:52;100248.16;;;16.31;88.79
80511;BME280;69840;53.040;8.600;2023-07-24T19:06:05;100256.38;;;16.29;88.72
80511;BME280;69840;53.040;8.600;2023-07-24T19:10:17;100273.13;;;16.05;88.29
80511;BME280;69840;53.040;8.600;2023-07-24T19:14:30;100283.59;;;15.93;88.59
80511;BME280;69840;53.040;8.600;2023-07-24T19:18:42;100294.09;;;15.88;89.15
80511;BME280;69840;53.040;8.600;2023-07-24T19:22:58;100298.00;;;15.79;89.16
80511;BME280;69840;53.040;8.600;2023-07-24T19:27:10;100308.00;;;15.90;90.14
80511;BME280;69840;53.040;8.600;2023-07-24T19:31:23;100337.31;;;15.90;89.43
80511;BME280;69840;53.040;8.600;2023-07-24T19:35:35;100341.47;;;15.60;88.01
80511;BME280;69840;53.040;8.600;2023-07-24T19:39:48;100348.03;;;15.37;87.26
80511;BME280;69840;53.040;8.600;2023-07-24T19:44:01;100365.84;;;15.50;87.01
80511;BME280;69840;53.040;8.600;2023-07-24T19:48:14;100372.00;;;15.51;86.39
80511;BME280;69840;53.040;8.600;2023-07-24T19:52:27;100375.47;;;15.31;87.27
80511;BME280;69840;53.040;8.600;2023-07-24T19:56:39;100395.38;;;15.42;87.81
80511;BME280;69840;53.040;8.600;2023-07-24T20:00:52;100386.13;;;15.31;85.31
80511;BME280;69840;53.040;8.600;2023-07-24T20:05:05;100388.13;;;14.96;85.33
80511;BME280;69840;53.040;8.600;2023-07-24T20:09:18;100399.84;;;15.08;85.51
80511;BME280;69840;53.040;8.600;2023-07-24T20:13:31;100396.75;;;15.12;84.59
80511;BME280;69840;53.040;8.600;2023-07-24T20:17:43;100409.91;;;15.20;85.09
80511;BME280;69840;53.040;8.600;2023-07-24T20:21:56;100411.94;;;15.18;85.80
80511;BME280;69840;53.040;8.600;2023-07-24T20:26:08;100403.31;;;15.16;84.90
80511;BME280;69840;53.040;8.600;2023-07-24T20:30:21;100406.56;;;14.91;85.78
80511;BME280;69840;53.040;8.600;2023-07-24T20:34:33;100413.09;;;14.95;86.08
80511;BME280;69840;53.040;8.600;2023-07-24T20:38:46;100428.28;;;14.95;86.24
80511;BME280;69840;53.040;8.600;2023-07-24T20:42:58;100430.72;;;14.96;85.86
80511;BME280;69840;53.040;8.600;2023-07-24T20:47:11;100427.25;;;15.02;85.86
80511;BME280;69840;53.040;8.600;2023-07-24T20:51:23;100438.97;;;15.08;85.68
80511;BME280;69840;53.040;8.600;2023-07-24T20:55:36;100438.53;;;15.11;85.89
80511;BME280;69840;53.040;8.600;2023-07-24T20:59:48;100439.16;;;15.13;86.69
80511;BME280;69840;53.040;8.600;2023-07-24T21:04:01;100440.19;;;15.05;86.51
80511;BME280;69840;53.040;8.600;2023-07-24T21:08:13;100447.72;;;14.95;86.97
80511;BME280;69840;53.040;8.600;2023-07-24T21:12:26;100452.41;;;14.87;87.45
80511;BME280;69840;53.040;8.600;2023-07-24T21:16:39;100454.44;;;14.85;88.04
80511;BME280;69840;53.040;8.600;2023-07-24T21:20:51;100456.88;;;14.80;88.32
80511;BME280;69840;53.040;8.600;2023-07-24T21:25:04;100451.97;;;14.77;88.93
80511;BME280;69840;53.040;8.600;2023-07-24T21:29:16;100453.81;;;14.76;88.86
80511;BME280;69840;53.040;8.600;2023-07-24T21:33:29;100450.53;;;14.74;88.87
80511;BME280;69840;53.040;8.600;2023-07-24T21:37:41;100455.59;;;14.69;89.24
80511;BME280;69840;53.040;8.600;2023-07-24T21:41:54;100469.91;;;14.61;89.90
80511;BME280;69840;53.040;8.600;2023-07-24T21:46:06;100461.31;;;14.59;90.36
80511;BME280;69840;53.040;8.600;2023-07-24T21:50:19;100462.88;;;14.47;90.21
80511;BME280;69840;53.040;8.600;2023-07-24T21:54:31;100455.94;;;14.46;90.75
80511;BME280;69840;53.040;8.600;2023-07-24T21:58:44;100461.44;;;14.51;91.12
80511;BME280;69840;53.040;8.600;2023-07-24T22:02:57;100466.31;;;14.41;91.25